sensor_id;sensor_type;location;lat;lon;timestamp;temperature;humidity
5978;DHT22;3015;51.390;12.256;2022-12-05T00:00:33;2.90;1.00
5978;DHT22;3015;51.390;12.256;2022-12-05T00:03:03;2.90;1.00
5978;DHT22;3015;51.390;12.256;2022-12-05T00:05:29;2.90;1.00
5978;DHT22;3015;51.390;12.256;2022-12-05T00:07:55;2.90;1.00
5978;DHT22;3015;51.390;12.256;2022-12-05T00:10:21;2.90;1.00
5978;DHT22;3015;51.390;12.256;2022-12-05T00:12:46;2.90;1.00
5978;DHT22;3015;51.390;12.256;2022-12-05T00:15:12;2.90;1.00
5978;DHT22;3015;51.390;12.256;2022-12-05T00:17:39;2.80;1.00
5978;DHT22;3015;51.390;12.256;2022-12-05T00:20:07;2.90;1.00
5978;DHT22;3015;51.390;12.256;2022-12-05T00:22:37;2.90;1.00
5978;DHT22;3015;51.390;12.256;2022-12-05T00:25:06;2.90;1.00
5978;DHT22;3015;51.390;12.256;2022-12-05T00:27:33;2.90;1.00
5978;DHT22;3015;51.390;12.256;2022-12-05T00:29:58;2.90;1.00
5978;DHT22;3015;51.390;12.256;2022-12-05T00:32:28;2.90;1.00
5978;DHT22;3015;51.390;12.256;2022-12-05T00:34:54;2.90;1.00
5978;DHT22;3015;51.390;12.256;2022-12-05T00:37:20;2.90;1.00
5978;DHT22;3015;51.390;12.256;2022-12-05T00:39:45;2.90;1.00
5978;DHT22;3015;51.390;12.256;2022-12-05T00:42:11;2.90;1.00
5978;DHT22;3015;51.390;12.256;2022-12-05T00:44:37;2.90;1.00
5978;DHT22;3015;51.390;12.256;2022-12-05T00:47:02;2.90;1.00
5978;DHT22;3015;51.390;12.256;2022-12-05T00:49:28;3.00;1.00
5978;DHT22;3015;51.390;12.256;2022-12-05T00:51:54;2.90;1.00
5978;DHT22;3015;51.390;12.256;2022-12-05T00:54:19;2.90;1.00
5978;DHT22;3015;51.390;12.256;2022-12-05T00:56:45;3.00;1.00
5978;DHT22;3015;51.390;12.256;2022-12-05T00:59:18;3.00;1.00
5978;DHT22;3015;51.390;12.256;2022-12-05T01:01:45;3.00;1.00
5978;DHT22;3015;51.390;12.256;2022-12-05T01:04:14;3.00;1.00
5978;DHT22;3015;51.390;12.256;2022-12-05T01:06:40;3.00;1.00
5978;DHT22;3015;51.390;12.256;2022-12-05T01:09:09;3.00;1.00
5978;DHT22;3015;51.390;12.256;2022-12-05T01:11:35;3.00;1.00
5978;DHT22;3015;51.390;12.256;2022-12-05T01:14:01;3.00;1.00
5978;DHT22;3015;51.390;12.256;2022-12-05T01:16:33;3.00;1.00
5978;DHT22;3015;51.390;12.256;2022-12-05T01:19:02;3.00;1.00
5978;DHT22;3015;51.390;12.256;2022-12-05T01:21:28;2.90;1.00
5978;DHT22;3015;51.390;12.256;2022-12-05T01:23:54;2.90;1.00
5978;DHT22;3015;51.390;12.256;2022-12-05T01:26:22;2.90;1.00
5978;DHT22;3015;51.390;12.256;2022-12-05T01:28:48;3.00;1.00
5978;DHT22;3015;51.390;12.256;2022-12-05T01:33:46;2.90;1.00
5978;DHT22;3015;51.390;12.256;2022-12-05T01:36:12;2.90;1.00
5978;DHT22;3015;51.390;12.256;2022-12-05T01:38:39;2.90;1.00
5978;DHT22;3015;51.390;12.256;2022-12-05T01:41:07;2.90;1.00
5978;DHT22;3015;51.390;12.256;2022-12-05T01:43:51;2.90;1.00
5978;DHT22;3015;51.390;12.256;2022-12-05T01:46:17;2.90;1.00
5978;DHT22;3015;51.390;12.256;2022-12-05T01:48:42;2.90;99.90
5978;DHT22;3015;51.390;12.256;2022-12-05T01:51:09;2.90;99.90
5978;DHT22;3015;51.390;12.256;2022-12-05T01:53:35;2.90;99.90
5978;DHT22;3015;51.390;12.256;2022-12-05T01:56:01;2.90;99.90
5978;DHT22;3015;51.390;12.256;2022-12-05T01:58:31;3.00;99.90
5978;DHT22;3015;51.390;12.256;2022-12-05T02:00:57;3.00;99.90
5978;DHT22;3015;51.390;12.256;2022-12-05T02:03:23;3.00;99.90
5978;DHT22;3015;51.390;12.256;2022-12-05T02:05:51;3.00;99.90
5978;DHT22;3015;51.390;12.256;2022-12-05T02:08:18;3.00;99.90
5978;DHT22;3015;51.390;12.256;2022-12-05T02:10:49;3.00;99.90
5978;DHT22;3015;51.390;12.256;2022-12-05T02:13:41;3.00;99.90
5978;DHT22;3015;51.390;12.256;2022-12-05T02:16:37;3.00;99.90
5978;DHT22;3015;51.390;12.256;2022-12-05T02:24:42;3.10;99.90
5978;DHT22;3015;51.390;12.256;2022-12-05T02:35:29;3.10;99.90
5978;DHT22;3015;51.390;12.256;2022-12-05T02:41:21;3.10;99.90
5978;DHT22;3015;51.390;12.256;2022-12-05T02:44:02;3.10;99.90
5978;DHT22;3015;51.390;12.256;2022-12-05T02:46:31;3.00;99.90
5978;DHT22;3015;51.390;12.256;2022-12-05T02:49:01;3.10;99.90
5978;DHT22;3015;51.390;12.256;2022-12-05T02:51:31;3.00;99.90
5978;DHT22;3015;51.390;12.256;2022-12-05T02:54:01;3.10;99.90
5978;DHT22;3015;51.390;12.256;2022-12-05T02:56:29;3.20;99.90
5978;DHT22;3015;51.390;12.256;2022-12-05T02:58:56;3.10;99.90
5978;DHT22;3015;51.390;12.256;2022-12-05T03:01:24;3.10;99.90
5978;DHT22;3015;51.390;12.256;2022-12-05T03:03:52;3.10;99.90
5978;DHT22;3015;51.390;12.256;2022-12-05T03:06:26;3.10;99.90
5978;DHT22;3015;51.390;12.256;2022-12-05T03:08:55;3.10;99.90
5978;DHT22;3015;51.390;12.256;2022-12-05T03:11:22;3.00;99.90
5978;DHT22;3015;51.390;12.256;2022-12-05T03:13:51;3.00;99.90
5978;DHT22;3015;51.390;12.256;2022-12-05T03:16:25;3.00;99.90
5978;DHT22;3015;51.390;12.256;2022-12-05T03:18:57;3.10;99.90
5978;DHT22;3015;51.390;12.256;2022-12-05T03:21:34;3.00;99.90
5978;DHT22;3015;51.390;12.256;2022-12-05T03:24:09;3.00;99.90
5978;DHT22;3015;51.390;12.256;2022-12-05T03:29:34;3.00;99.90
5978;DHT22;3015;51.390;12.256;2022-12-05T03:37:40;3.10;99.90
5978;DHT22;3015;51.390;12.256;2022-12-05T03:46:05;3.20;99.90
5978;DHT22;3015;51.390;12.256;2022-12-05T03:48:58;3.10;99.90
5978;DHT22;3015;51.390;12.256;2022-12-05T03:51:25;3.00;99.90
5978;DHT22;3015;51.390;12.256;2022-12-05T03:53:58;3.00;99.90
5978;DHT22;3015;51.390;12.256;2022-12-05T03:56:34;3.00;99.90
5978;DHT22;3015;51.390;12.256;2022-12-05T03:59:27;3.00;99.90
5978;DHT22;3015;51.390;12.256;2022-12-05T04:01:51;3.00;99.90
5978;DHT22;3015;51.390;12.256;2022-12-05T04:04:30;3.00;99.90
5978;DHT22;3015;51.390;12.256;2022-12-05T04:07:01;2.90;99.90
5978;DHT22;3015;51.390;12.256;2022-12-05T04:09:36;3.00;99.90
5978;DHT22;3015;51.390;12.256;2022-12-05T04:12:07;3.00;99.90
5978;DHT22;3015;51.390;12.256;2022-12-05T04:14:43;3.00;99.90
5978;DHT22;3015;51.390;12.256;2022-12-05T04:17:22;2.90;99.90
5978;DHT22;3015;51.390;12.256;2022-12-05T04:20:24;3.00;99.90
5978;DHT22;3015;51.390;12.256;2022-12-05T04:23:10;3.10;99.90
5978;DHT22;3015;51.390;12.256;2022-12-05T04:25:41;3.10;99.90
5978;DHT22;3015;51.390;12.256;2022-12-05T04:28:33;3.10;99.90
5978;DHT22;3015;51.390;12.256;2022-12-05T04:31:10;3.00;99.90
5978;DHT22;3015;51.390;12.256;2022-12-05T04:33:45;3.00;99.90
5978;DHT22;3015;51.390;12.256;2022-12-05T04:39:05;3.00;99.90
5978;DHT22;3015;51.390;12.256;2022-12-05T04:42:19;3.00;99.90
5978;DHT22;3015;51.390;12.256;2022-12-05T04:44:29;3.00;99.90
5978;DHT22;3015;51.390;12.256;2022-12-05T04:47:00;3.00;99.90
5978;DHT22;3015;51.390;12.256;2022-12-05T04:49:28;3.00;99.90
5978;DHT22;3015;51.390;12.256;2022-12-05T04:51:58;3.00;95.10
5978;DHT22;3015;51.390;12.256;2022-12-05T04:54:31;2.90;91.10
5978;DHT22;3015;51.390;12.256;2022-12-05T04:57:10;3.00;45.60
5978;DHT22;3015;51.390;12.256;2022-12-05T04:59:37;3.00;21.00
5978;DHT22;3015;51.390;12.256;2022-12-05T05:02:08;3.00;2.10
5978;DHT22;3015;51.390;12.256;2022-12-05T05:04:46;3.00;1.00
5978;DHT22;3015;51.390;12.256;2022-12-05T05:07:13;3.00;1.00
5978;DHT22;3015;51.390;12.256;2022-12-05T05:09:39;3.10;1.00
5978;DHT22;3015;51.390;12.256;2022-12-05T05:12:06;3.20;1.00
5978;DHT22;3015;51.390;12.256;2022-12-05T05:14:32;3.20;1.00
5978;DHT22;3015;51.390;12.256;2022-12-05T05:16:58;3.20;99.90
5978;DHT22;3015;51.390;12.256;2022-12-05T05:19:23;3.20;99.90
5978;DHT22;3015;51.390;12.256;2022-12-05T05:21:50;3.30;99.90
5978;DHT22;3015;51.390;12.256;2022-12-05T05:24:16;3.30;99.90
5978;DHT22;3015;51.390;12.256;2022-12-05T05:26:44;3.20;1.00
5978;DHT22;3015;51.390;12.256;2022-12-05T05:29:10;3.10;99.90
5978;DHT22;3015;51.390;12.256;2022-12-05T05:31:38;3.20;99.90
5978;DHT22;3015;51.390;12.256;2022-12-05T05:34:04;3.20;99.90
5978;DHT22;3015;51.390;12.256;2022-12-05T05:36:30;3.10;99.90
5978;DHT22;3015;51.390;12.256;2022-12-05T05:38:58;3.30;1.00
5978;DHT22;3015;51.390;12.256;2022-12-05T05:41:30;3.20;99.90
5978;DHT22;3015;51.390;12.256;2022-12-05T05:43:56;3.20;99.90
5978;DHT22;3015;51.390;12.256;2022-12-05T05:46:25;3.10;99.90
5978;DHT22;3015;51.390;12.256;2022-12-05T05:48:51;3.20;99.90
5978;DHT22;3015;51.390;12.256;2022-12-05T05:51:18;3.10;99.90
5978;DHT22;3015;51.390;12.256;2022-12-05T05:53:44;3.00;99.90
5978;DHT22;3015;51.390;12.256;2022-12-05T05:56:16;3.00;99.90
5978;DHT22;3015;51.390;12.256;2022-12-05T05:58:42;3.00;99.90
5978;DHT22;3015;51.390;12.256;2022-12-05T06:01:18;3.00;99.90
5978;DHT22;3015;51.390;12.256;2022-12-05T06:03:47;2.90;99.90
5978;DHT22;3015;51.390;12.256;2022-12-05T06:06:13;2.90;99.90
5978;DHT22;3015;51.390;12.256;2022-12-05T06:08:42;2.90;99.90
5978;DHT22;3015;51.390;12.256;2022-12-05T06:11:19;2.90;99.90
5978;DHT22;3015;51.390;12.256;2022-12-05T06:13:46;3.00;99.90
5978;DHT22;3015;51.390;12.256;2022-12-05T06:16:13;3.00;99.90
5978;DHT22;3015;51.390;12.256;2022-12-05T06:18:40;2.90;99.90
5978;DHT22;3015;51.390;12.256;2022-12-05T06:21:06;2.90;99.90
5978;DHT22;3015;51.390;12.256;2022-12-05T06:23:34;3.00;99.90
5978;DHT22;3015;51.390;12.256;2022-12-05T06:26:00;3.10;99.90
5978;DHT22;3015;51.390;12.256;2022-12-05T06:28:26;3.00;99.90
5978;DHT22;3015;51.390;12.256;2022-12-05T06:30:52;3.00;99.90
5978;DHT22;3015;51.390;12.256;2022-12-05T06:33:18;3.10;99.90
5978;DHT22;3015;51.390;12.256;2022-12-05T06:35:44;3.00;1.00
5978;DHT22;3015;51.390;12.256;2022-12-05T06:38:10;3.10;1.00
5978;DHT22;3015;51.390;12.256;2022-12-05T06:40:40;2.90;99.90
5978;DHT22;3015;51.390;12.256;2022-12-05T06:43:06;2.90;99.90
5978;DHT22;3015;51.390;12.256;2022-12-05T06:45:31;2.80;99.90
5978;DHT22;3015;51.390;12.256;2022-12-05T06:47:57;2.90;99.90
5978;DHT22;3015;51.390;12.256;2022-12-05T06:50:23;3.00;1.00
5978;DHT22;3015;51.390;12.256;2022-12-05T06:52:49;3.00;1.00
5978;DHT22;3015;51.390;12.256;2022-12-05T06:55:15;3.00;1.00
5978;DHT22;3015;51.390;12.256;2022-12-05T06:57:41;2.90;1.00
5978;DHT22;3015;51.390;12.256;2022-12-05T07:00:07;2.90;99.90
5978;DHT22;3015;51.390;12.256;2022-12-05T07:02:52;2.80;99.90
5978;DHT22;3015;51.390;12.256;2022-12-05T07:05:18;2.80;99.90
5978;DHT22;3015;51.390;12.256;2022-12-05T07:07:44;2.80;99.90
5978;DHT22;3015;51.390;12.256;2022-12-05T07:10:09;2.90;99.90
5978;DHT22;3015;51.390;12.256;2022-12-05T07:12:35;2.90;1.00
5978;DHT22;3015;51.390;12.256;2022-12-05T07:15:01;2.80;1.00
5978;DHT22;3015;51.390;12.256;2022-12-05T07:17:26;2.80;99.90
5978;DHT22;3015;51.390;12.256;2022-12-05T07:19:52;2.80;99.90
5978;DHT22;3015;51.390;12.256;2022-12-05T07:22:19;2.80;99.90
5978;DHT22;3015;51.390;12.256;2022-12-05T07:24:45;2.80;99.90
5978;DHT22;3015;51.390;12.256;2022-12-05T07:27:12;2.80;99.90
5978;DHT22;3015;51.390;12.256;2022-12-05T07:29:39;2.80;99.90
5978;DHT22;3015;51.390;12.256;2022-12-05T07:32:05;2.90;99.90
5978;DHT22;3015;51.390;12.256;2022-12-05T07:34:30;2.90;99.90
5978;DHT22;3015;51.390;12.256;2022-12-05T07:36:56;2.90;99.90
5978;DHT22;3015;51.390;12.256;2022-12-05T07:39:21;2.90;99.90
5978;DHT22;3015;51.390;12.256;2022-12-05T07:41:47;2.90;99.90
5978;DHT22;3015;51.390;12.256;2022-12-05T07:44:13;2.90;99.90
5978;DHT22;3015;51.390;12.256;2022-12-05T07:46:39;2.90;99.90
5978;DHT22;3015;51.390;12.256;2022-12-05T07:49:05;3.00;99.90
5978;DHT22;3015;51.390;12.256;2022-12-05T07:51:31;3.10;99.90
5978;DHT22;3015;51.390;12.256;2022-12-05T07:53:58;3.10;99.90
5978;DHT22;3015;51.390;12.256;2022-12-05T07:56:24;3.10;99.90
5978;DHT22;3015;51.390;12.256;2022-12-05T07:58:50;3.00;99.90
5978;DHT22;3015;51.390;12.256;2022-12-05T08:01:22;3.10;99.90
5978;DHT22;3015;51.390;12.256;2022-12-05T08:03:48;3.10;99.90
5978;DHT22;3015;51.390;12.256;2022-12-05T08:06:19;3.10;1.00
5978;DHT22;3015;51.390;12.256;2022-12-05T08:08:46;3.10;1.00
5978;DHT22;3015;51.390;12.256;2022-12-05T08:11:18;3.00;1.00
5978;DHT22;3015;51.390;12.256;2022-12-05T08:13:44;3.00;99.90
5978;DHT22;3015;51.390;12.256;2022-12-05T08:16:14;3.10;1.00
5978;DHT22;3015;51.390;12.256;2022-12-05T08:18:40;3.10;99.90
5978;DHT22;3015;51.390;12.256;2022-12-05T08:21:08;3.10;99.90
5978;DHT22;3015;51.390;12.256;2022-12-05T08:23:35;3.00;28.00
5978;DHT22;3015;51.390;12.256;2022-12-05T08:26:08;3.00;99.90
5978;DHT22;3015;51.390;12.256;2022-12-05T08:28:34;3.00;48.30
5978;DHT22;3015;51.390;12.256;2022-12-05T08:31:05;3.10;99.90
5978;DHT22;3015;51.390;12.256;2022-12-05T08:36:46;3.20;99.90
5978;DHT22;3015;51.390;12.256;2022-12-05T08:39:14;3.30;1.00
5978;DHT22;3015;51.390;12.256;2022-12-05T08:41:45;3.20;1.00
5978;DHT22;3015;51.390;12.256;2022-12-05T08:44:11;3.20;1.00
5978;DHT22;3015;51.390;12.256;2022-12-05T08:46:41;3.20;99.90
5978;DHT22;3015;51.390;12.256;2022-12-05T08:49:07;3.20;99.90
5978;DHT22;3015;51.390;12.256;2022-12-05T08:51:33;3.20;99.90
5978;DHT22;3015;51.390;12.256;2022-12-05T08:54:03;3.20;99.90
5978;DHT22;3015;51.390;12.256;2022-12-05T08:56:29;3.20;1.00
5978;DHT22;3015;51.390;12.256;2022-12-05T08:58:55;3.10;85.60
5978;DHT22;3015;51.390;12.256;2022-12-05T09:01:21;3.20;1.00
5978;DHT22;3015;51.390;12.256;2022-12-05T09:03:47;3.20;1.00
5978;DHT22;3015;51.390;12.256;2022-12-05T09:08:41;3.20;99.90
5978;DHT22;3015;51.390;12.256;2022-12-05T09:11:09;3.20;99.90
5978;DHT22;3015;51.390;12.256;2022-12-05T09:13:36;3.10;1.00
5978;DHT22;3015;51.390;12.256;2022-12-05T09:16:19;3.10;99.90
5978;DHT22;3015;51.390;12.256;2022-12-05T09:18:45;3.20;1.00
5978;DHT22;3015;51.390;12.256;2022-12-05T09:21:16;3.20;99.90
5978;DHT22;3015;51.390;12.256;2022-12-05T09:23:43;3.20;1.00
5978;DHT22;3015;51.390;12.256;2022-12-05T09:26:12;3.10;99.90
5978;DHT22;3015;51.390;12.256;2022-12-05T09:28:38;3.00;99.90
5978;DHT22;3015;51.390;12.256;2022-12-05T09:31:07;3.10;99.90
5978;DHT22;3015;51.390;12.256;2022-12-05T09:33:34;3.10;99.90
5978;DHT22;3015;51.390;12.256;2022-12-05T09:36:08;3.20;99.90
5978;DHT22;3015;51.390;12.256;2022-12-05T09:38:35;3.20;1.00
5978;DHT22;3015;51.390;12.256;2022-12-05T09:58:29;3.20;99.90
5978;DHT22;3015;51.390;12.256;2022-12-05T10:01:24;3.20;99.90
5978;DHT22;3015;51.390;12.256;2022-12-05T10:04:04;3.30;99.90
5978;DHT22;3015;51.390;12.256;2022-12-05T10:06:56;3.30;99.90
5978;DHT22;3015;51.390;12.256;2022-12-05T10:15:00;3.40;99.90
5978;DHT22;3015;51.390;12.256;2022-12-05T10:17:34;3.40;1.00
5978;DHT22;3015;51.390;12.256;2022-12-05T10:20:15;3.30;99.90
5978;DHT22;3015;51.390;12.256;2022-12-05T10:22:49;3.20;1.00
5978;DHT22;3015;51.390;12.256;2022-12-05T10:25:19;3.30;99.90
5978;DHT22;3015;51.390;12.256;2022-12-05T10:27:51;3.30;1.00
5978;DHT22;3015;51.390;12.256;2022-12-05T10:30:21;3.30;1.00
5978;DHT22;3015;51.390;12.256;2022-12-05T10:32:50;3.20;1.00
5978;DHT22;3015;51.390;12.256;2022-12-05T10:37:57;3.20;99.90
5978;DHT22;3015;51.390;12.256;2022-12-05T10:40:26;3.20;99.90
5978;DHT22;3015;51.390;12.256;2022-12-05T10:42:57;3.30;99.90
5978;DHT22;3015;51.390;12.256;2022-12-05T10:45:23;3.30;99.90
5978;DHT22;3015;51.390;12.256;2022-12-05T10:47:53;3.20;1.00
5978;DHT22;3015;51.390;12.256;2022-12-05T10:50:28;3.20;1.00
5978;DHT22;3015;51.390;12.256;2022-12-05T10:52:56;3.30;1.00
5978;DHT22;3015;51.390;12.256;2022-12-05T10:55:22;3.20;1.00
5978;DHT22;3015;51.390;12.256;2022-12-05T11:00:36;3.20;1.00
5978;DHT22;3015;51.390;12.256;2022-12-05T11:03:23;3.20;99.90
5978;DHT22;3015;51.390;12.256;2022-12-05T11:05:51;3.30;99.90
5978;DHT22;3015;51.390;12.256;2022-12-05T11:08:28;3.30;1.00
5978;DHT22;3015;51.390;12.256;2022-12-05T11:11:05;3.30;99.90
5978;DHT22;3015;51.390;12.256;2022-12-05T11:13:33;3.20;99.90
5978;DHT22;3015;51.390;12.256;2022-12-05T11:16:00;3.20;92.70
5978;DHT22;3015;51.390;12.256;2022-12-05T11:18:28;3.20;76.60
5978;DHT22;3015;51.390;12.256;2022-12-05T11:20:55;3.20;99.90
5978;DHT22;3015;51.390;12.256;2022-12-05T11:23:24;3.30;1.00
5978;DHT22;3015;51.390;12.256;2022-12-05T11:25:51;3.20;1.00
5978;DHT22;3015;51.390;12.256;2022-12-05T11:31:04;3.20;1.00
5978;DHT22;3015;51.390;12.256;2022-12-05T11:33:34;3.10;82.40
5978;DHT22;3015;51.390;12.256;2022-12-05T11:36:13;3.20;99.90
5978;DHT22;3015;51.390;12.256;2022-12-05T11:38:43;3.20;99.90
5978;DHT22;3015;51.390;12.256;2022-12-05T11:41:46;3.10;1.00
5978;DHT22;3015;51.390;12.256;2022-12-05T11:55:19;3.20;99.90
5978;DHT22;3015;51.390;12.256;2022-12-05T12:06:10;3.20;99.90
5978;DHT22;3015;51.390;12.256;2022-12-05T12:09:13;3.20;1.00
5978;DHT22;3015;51.390;12.256;2022-12-05T12:14:58;3.20;99.90
5978;DHT22;3015;51.390;12.256;2022-12-05T12:25:35;3.00;99.90
5978;DHT22;3015;51.390;12.256;2022-12-05T12:36:31;3.10;99.90
5978;DHT22;3015;51.390;12.256;2022-12-05T12:50:31;3.10;57.20
5978;DHT22;3015;51.390;12.256;2022-12-05T12:59:01;3.10;99.90
5978;DHT22;3015;51.390;12.256;2022-12-05T13:02:10;3.20;99.90
5978;DHT22;3015;51.390;12.256;2022-12-05T13:04:59;3.10;1.00
5978;DHT22;3015;51.390;12.256;2022-12-05T13:07:33;3.10;99.90
5978;DHT22;3015;51.390;12.256;2022-12-05T13:10:29;3.10;99.90
5978;DHT22;3015;51.390;12.256;2022-12-05T13:12:58;3.20;99.90
5978;DHT22;3015;51.390;12.256;2022-12-05T13:15:34;3.20;99.90
5978;DHT22;3015;51.390;12.256;2022-12-05T13:18:06;3.20;6.30
5978;DHT22;3015;51.390;12.256;2022-12-05T13:20:33;3.30;1.00
5978;DHT22;3015;51.390;12.256;2022-12-05T13:23:02;3.20;1.00
5978;DHT22;3015;51.390;12.256;2022-12-05T13:25:31;3.30;1.00
5978;DHT22;3015;51.390;12.256;2022-12-05T13:28:00;3.20;99.90
5978;DHT22;3015;51.390;12.256;2022-12-05T13:30:27;3.20;1.00
5978;DHT22;3015;51.390;12.256;2022-12-05T13:32:57;3.20;99.90
5978;DHT22;3015;51.390;12.256;2022-12-05T13:35:35;3.20;1.00
5978;DHT22;3015;51.390;12.256;2022-12-05T13:38:21;3.20;56.00
5978;DHT22;3015;51.390;12.256;2022-12-05T13:41:06;3.20;1.00
5978;DHT22;3015;51.390;12.256;2022-12-05T13:43:51;3.20;1.00
5978;DHT22;3015;51.390;12.256;2022-12-05T13:46:28;3.20;99.90
5978;DHT22;3015;51.390;12.256;2022-12-05T13:49:13;3.30;1.00
5978;DHT22;3015;51.390;12.256;2022-12-05T13:51:42;3.20;99.90
5978;DHT22;3015;51.390;12.256;2022-12-05T13:54:21;3.20;1.00
5978;DHT22;3015;51.390;12.256;2022-12-05T14:02:54;3.30;99.90
5978;DHT22;3015;51.390;12.256;2022-12-05T14:07:50;3.30;1.00
5978;DHT22;3015;51.390;12.256;2022-12-05T14:12:57;3.30;99.90
5978;DHT22;3015;51.390;12.256;2022-12-05T14:15:34;3.30;60.60
5978;DHT22;3015;51.390;12.256;2022-12-05T14:18:37;3.30;99.90
5978;DHT22;3015;51.390;12.256;2022-12-05T14:23:58;3.20;1.00
5978;DHT22;3015;51.390;12.256;2022-12-05T14:32:30;3.30;1.00
5978;DHT22;3015;51.390;12.256;2022-12-05T14:35:10;3.30;1.00
5978;DHT22;3015;51.390;12.256;2022-12-05T14:37:49;3.20;1.00
5978;DHT22;3015;51.390;12.256;2022-12-05T14:40:23;3.30;1.00
5978;DHT22;3015;51.390;12.256;2022-12-05T14:42:57;3.20;99.90
5978;DHT22;3015;51.390;12.256;2022-12-05T14:46:14;3.30;99.90
5978;DHT22;3015;51.390;12.256;2022-12-05T14:50:47;3.40;1.00
5978;DHT22;3015;51.390;12.256;2022-12-05T14:58:22;3.30;88.20
5978;DHT22;3015;51.390;12.256;2022-12-05T15:00:59;3.30;99.90
5978;DHT22;3015;51.390;12.256;2022-12-05T15:03:32;3.30;1.00
5978;DHT22;3015;51.390;12.256;2022-12-05T15:06:01;3.20;39.90
5978;DHT22;3015;51.390;12.256;2022-12-05T15:08:30;3.20;99.90
5978;DHT22;3015;51.390;12.256;2022-12-05T15:10:58;3.20;99.90
5978;DHT22;3015;51.390;12.256;2022-12-05T15:13:25;3.10;99.90
5978;DHT22;3015;51.390;12.256;2022-12-05T15:16:16;3.10;99.90
5978;DHT22;3015;51.390;12.256;2022-12-05T15:18:48;3.20;1.00
5978;DHT22;3015;51.390;12.256;2022-12-05T15:21:45;3.20;1.00
5978;DHT22;3015;51.390;12.256;2022-12-05T15:24:14;3.20;1.00
5978;DHT22;3015;51.390;12.256;2022-12-05T15:26:46;3.20;1.00
5978;DHT22;3015;51.390;12.256;2022-12-05T15:35:05;3.30;1.00
5978;DHT22;3015;51.390;12.256;2022-12-05T15:37:26;3.30;1.00
5978;DHT22;3015;51.390;12.256;2022-12-05T15:42:28;3.20;1.00
5978;DHT22;3015;51.390;12.256;2022-12-05T15:47:46;3.20;99.90
5978;DHT22;3015;51.390;12.256;2022-12-05T15:55:56;2.80;99.90
5978;DHT22;3015;51.390;12.256;2022-12-05T15:58:35;2.60;99.90
5978;DHT22;3015;51.390;12.256;2022-12-05T16:06:29;2.20;99.90
5978;DHT22;3015;51.390;12.256;2022-12-05T16:08:56;2.10;99.90
5978;DHT22;3015;51.390;12.256;2022-12-05T16:11:24;1.90;99.90
5978;DHT22;3015;51.390;12.256;2022-12-05T16:13:55;1.90;99.90
5978;DHT22;3015;51.390;12.256;2022-12-05T16:16:27;1.80;99.90
5978;DHT22;3015;51.390;12.256;2022-12-05T16:18:55;1.80;99.90
5978;DHT22;3015;51.390;12.256;2022-12-05T16:24:14;1.50;99.90
5978;DHT22;3015;51.390;12.256;2022-12-05T16:26:41;1.40;99.90
5978;DHT22;3015;51.390;12.256;2022-12-05T16:29:24;1.30;99.90
5978;DHT22;3015;51.390;12.256;2022-12-05T16:31:57;1.20;99.90
5978;DHT22;3015;51.390;12.256;2022-12-05T16:34:24;1.10;99.90
5978;DHT22;3015;51.390;12.256;2022-12-05T16:36:51;1.10;99.90
5978;DHT22;3015;51.390;12.256;2022-12-05T16:39:19;0.90;99.90
5978;DHT22;3015;51.390;12.256;2022-12-05T16:41:45;0.80;99.90
5978;DHT22;3015;51.390;12.256;2022-12-05T16:46:56;0.70;99.90
5978;DHT22;3015;51.390;12.256;2022-12-05T16:54:32;0.40;99.90
5978;DHT22;3015;51.390;12.256;2022-12-05T16:56:58;0.40;91.60
5978;DHT22;3015;51.390;12.256;2022-12-05T16:59:35;0.30;62.10
5978;DHT22;3015;51.390;12.256;2022-12-05T17:02:03;0.40;1.00
5978;DHT22;3015;51.390;12.256;2022-12-05T17:04:30;0.30;13.60
5978;DHT22;3015;51.390;12.256;2022-12-05T17:06:56;0.30;1.00
5978;DHT22;3015;51.390;12.256;2022-12-05T17:09:21;0.30;1.00
5978;DHT22;3015;51.390;12.256;2022-12-05T17:11:49;0.30;1.00
5978;DHT22;3015;51.390;12.256;2022-12-05T17:14:17;0.30;1.00
5978;DHT22;3015;51.390;12.256;2022-12-05T17:16:43;0.40;1.00
5978;DHT22;3015;51.390;12.256;2022-12-05T17:19:10;0.50;1.00
5978;DHT22;3015;51.390;12.256;2022-12-05T17:21:36;0.50;1.00
5978;DHT22;3015;51.390;12.256;2022-12-05T17:24:03;0.60;1.00
5978;DHT22;3015;51.390;12.256;2022-12-05T17:26:28;0.50;1.00
5978;DHT22;3015;51.390;12.256;2022-12-05T17:28:55;0.50;1.00
5978;DHT22;3015;51.390;12.256;2022-12-05T17:31:22;0.60;1.00
5978;DHT22;3015;51.390;12.256;2022-12-05T17:33:49;0.60;1.00
5978;DHT22;3015;51.390;12.256;2022-12-05T17:36:15;0.60;1.00
5978;DHT22;3015;51.390;12.256;2022-12-05T17:38:42;0.70;1.00
5978;DHT22;3015;51.390;12.256;2022-12-05T17:41:13;0.80;1.00
5978;DHT22;3015;51.390;12.256;2022-12-05T17:43:39;0.90;1.00
5978;DHT22;3015;51.390;12.256;2022-12-05T17:46:05;1.00;1.00
5978;DHT22;3015;51.390;12.256;2022-12-05T17:48:32;1.00;1.00
5978;DHT22;3015;51.390;12.256;2022-12-05T17:50:57;1.20;1.00
5978;DHT22;3015;51.390;12.256;2022-12-05T17:53:24;1.30;1.00
5978;DHT22;3015;51.390;12.256;2022-12-05T17:55:50;1.30;1.00
5978;DHT22;3015;51.390;12.256;2022-12-05T17:58:16;1.30;1.00
5978;DHT22;3015;51.390;12.256;2022-12-05T18:00:43;1.30;1.00
5978;DHT22;3015;51.390;12.256;2022-12-05T18:03:14;1.30;1.00
5978;DHT22;3015;51.390;12.256;2022-12-05T18:05:42;1.40;1.00
5978;DHT22;3015;51.390;12.256;2022-12-05T18:08:08;1.40;1.00
5978;DHT22;3015;51.390;12.256;2022-12-05T18:10:34;1.30;17.40
5978;DHT22;3015;51.390;12.256;2022-12-05T18:13:00;1.20;14.70
5978;DHT22;3015;51.390;12.256;2022-12-05T18:15:25;1.30;1.00
5978;DHT22;3015;51.390;12.256;2022-12-05T18:17:51;1.20;1.00
5978;DHT22;3015;51.390;12.256;2022-12-05T18:20:17;1.10;8.90
5978;DHT22;3015;51.390;12.256;2022-12-05T18:22:43;1.10;1.00
5978;DHT22;3015;51.390;12.256;2022-12-05T18:25:09;1.10;1.00
5978;DHT22;3015;51.390;12.256;2022-12-05T18:27:36;1.10;1.00
5978;DHT22;3015;51.390;12.256;2022-12-05T18:30:03;1.10;1.00
5978;DHT22;3015;51.390;12.256;2022-12-05T18:32:29;1.20;1.00
5978;DHT22;3015;51.390;12.256;2022-12-05T18:34:54;1.20;1.00
5978;DHT22;3015;51.390;12.256;2022-12-05T18:37:23;1.10;1.00
5978;DHT22;3015;51.390;12.256;2022-12-05T18:39:49;1.10;1.00
5978;DHT22;3015;51.390;12.256;2022-12-05T18:42:15;1.20;1.00
5978;DHT22;3015;51.390;12.256;2022-12-05T18:44:40;1.20;1.00
5978;DHT22;3015;51.390;12.256;2022-12-05T18:47:06;1.20;1.00
5978;DHT22;3015;51.390;12.256;2022-12-05T18:49:31;1.30;1.00
5978;DHT22;3015;51.390;12.256;2022-12-05T18:51:57;1.20;1.00
5978;DHT22;3015;51.390;12.256;2022-12-05T18:54:23;1.30;1.00
5978;DHT22;3015;51.390;12.256;2022-12-05T18:56:48;1.30;1.00
5978;DHT22;3015;51.390;12.256;2022-12-05T18:59:19;1.30;1.00
5978;DHT22;3015;51.390;12.256;2022-12-05T19:01:45;1.30;1.00
5978;DHT22;3015;51.390;12.256;2022-12-05T19:04:14;1.40;1.00
5978;DHT22;3015;51.390;12.256;2022-12-05T19:06:45;1.40;1.00
5978;DHT22;3015;51.390;12.256;2022-12-05T19:09:13;1.40;1.00
5978;DHT22;3015;51.390;12.256;2022-12-05T19:11:41;1.50;1.00
5978;DHT22;3015;51.390;12.256;2022-12-05T19:14:11;1.40;1.00
5978;DHT22;3015;51.390;12.256;2022-12-05T19:16:37;1.50;1.00
5978;DHT22;3015;51.390;12.256;2022-12-05T19:19:05;1.50;1.00
5978;DHT22;3015;51.390;12.256;2022-12-05T19:21:32;1.50;1.00
5978;DHT22;3015;51.390;12.256;2022-12-05T19:23:58;1.60;1.00
5978;DHT22;3015;51.390;12.256;2022-12-05T19:26:24;1.70;1.00
5978;DHT22;3015;51.390;12.256;2022-12-05T19:28:50;1.80;1.00
5978;DHT22;3015;51.390;12.256;2022-12-05T19:31:19;1.80;1.00
5978;DHT22;3015;51.390;12.256;2022-12-05T19:33:47;1.80;1.00
5978;DHT22;3015;51.390;12.256;2022-12-05T19:36:18;1.90;1.00
5978;DHT22;3015;51.390;12.256;2022-12-05T19:38:45;1.90;1.00